createdAt,value
2018-05-17T00:14:03.490Z,4.47
2018-05-17T00:16:30.995Z,5.13
2018-05-17T00:18:58.529Z,5.37
2018-05-17T00:27:07.518Z,5.13
2018-05-17T00:29:35.023Z,5.20
2018-05-17T00:32:02.531Z,5.20
2018-05-17T00:34:30.041Z,4.60
2018-05-17T00:36:57.538Z,4.27
2018-05-17T00:39:25.810Z,5.43
2018-05-17T00:41:54.077Z,4.90
2018-05-17T00:44:22.346Z,4.80
2018-05-17T00:46:49.850Z,5.20
2018-05-17T00:49:17.357Z,5.00
2018-05-17T00:51:44.857Z,4.93
2018-05-17T00:54:12.362Z,4.30
2018-05-17T00:56:39.863Z,4.70
2018-05-17T00:59:08.130Z,5.87
2018-05-17T01:01:36.398Z,5.00
2018-05-17T01:04:03.900Z,5.13
2018-05-17T01:06:31.402Z,4.93
2018-05-17T01:08:58.910Z,4.87
2018-05-17T01:11:26.419Z,4.63
2018-05-17T01:17:00.997Z,4.70
2018-05-17T01:19:44.437Z,4.63
2018-05-17T01:22:29.018Z,4.93
2018-05-17T02:20:04.180Z,6.67
2018-05-17T03:22:59.330Z,6.00
2018-05-17T03:25:27.601Z,6.80
2018-05-17T03:27:55.874Z,6.83
2018-05-17T03:30:24.144Z,6.23
2018-05-17T03:32:51.650Z,6.10
2018-05-17T03:35:19.151Z,6.77
2018-05-17T03:37:46.654Z,7.50
2018-05-17T03:40:14.167Z,6.73
2018-05-17T03:42:41.679Z,5.53
2018-05-17T03:45:09.181Z,6.47
2018-05-17T03:47:36.690Z,5.93
2018-05-17T03:50:04.204Z,6.20
2018-05-17T03:52:31.716Z,5.27
2018-05-17T03:54:59.223Z,6.27
2018-05-17T03:57:26.726Z,6.73
2018-05-17T03:59:54.242Z,5.80
2018-05-17T04:02:33.437Z,7.40
2018-05-17T04:05:12.808Z,6.00
2018-05-17T04:07:41.217Z,6.13
2018-05-17T04:10:09.496Z,6.27
2018-05-17T04:12:37.777Z,6.20
2018-05-17T04:15:06.050Z,6.53
2018-05-17T04:17:34.320Z,6.57
2018-05-17T04:23:03.509Z,6.47
2018-05-17T04:25:31.018Z,6.60
2018-05-17T04:27:58.526Z,5.60
2018-05-17T04:30:26.024Z,6.77
2018-05-17T04:32:57.086Z,6.53
2018-05-17T04:35:24.603Z,7.20
2018-05-17T04:37:52.114Z,5.87
2018-05-17T04:40:19.622Z,6.67
2018-05-17T04:42:47.129Z,6.47
2018-05-17T04:45:14.629Z,7.37
2018-05-17T04:47:42.133Z,6.77
2018-05-17T04:50:09.638Z,8.00
2018-05-17T04:52:37.143Z,7.73
2018-05-17T04:55:04.645Z,7.17
2018-05-17T04:57:32.149Z,8.60
2018-05-17T05:00:00.430Z,8.87
2018-05-17T05:02:28.706Z,9.80
2018-05-17T05:04:56.981Z,7.97
2018-05-17T05:07:25.261Z,8.70
2018-05-17T05:09:53.535Z,8.97
2018-05-17T05:12:21.809Z,9.37
2018-05-17T05:24:01.398Z,9.27
2018-05-17T05:26:28.906Z,8.50
2018-05-17T05:28:56.422Z,8.53
2018-05-17T05:31:24.706Z,8.27
2018-05-17T05:33:52.977Z,8.90
2018-05-17T05:36:21.258Z,8.17
2018-05-17T05:38:49.530Z,8.73
2018-05-17T05:41:17.814Z,8.20
2018-05-17T05:43:46.100Z,8.30
2018-05-17T05:46:14.373Z,7.93
2018-05-17T05:48:42.659Z,8.47
2018-05-17T05:51:10.166Z,8.93
2018-05-17T05:53:37.680Z,9.10
2018-05-17T05:56:05.189Z,9.40
2018-05-17T05:58:32.705Z,9.43
2018-05-17T06:01:00.218Z,8.53
2018-05-17T06:03:27.732Z,8.47
2018-05-17T06:05:55.238Z,8.03
2018-05-17T06:08:22.815Z,8.80
2018-05-17T06:10:50.273Z,9.30
2018-05-17T06:13:18.552Z,8.90
2018-05-17T06:15:46.822Z,8.10
2018-05-17T06:24:00.149Z,8.97
2018-05-17T06:26:27.650Z,8.30
2018-05-17T06:28:55.157Z,7.67
2018-05-17T06:31:22.664Z,8.97
2018-05-17T06:33:50.174Z,8.00
2018-05-17T06:36:17.680Z,8.57
2018-05-17T06:38:45.184Z,8.77
2018-05-17T06:41:12.693Z,7.43
2018-05-17T06:43:40.198Z,7.70
2018-05-17T06:46:07.705Z,8.17
2018-05-17T06:48:35.229Z,8.00
2018-05-17T06:51:02.733Z,8.77
2018-05-17T06:53:30.235Z,7.83
2018-05-17T06:55:57.738Z,7.00
2018-05-17T06:58:25.239Z,8.57
2018-05-17T07:00:53.513Z,8.53
2018-05-17T07:03:21.032Z,8.83
2018-05-17T07:05:48.533Z,8.77
2018-05-17T07:08:16.801Z,7.90
2018-05-17T07:10:45.064Z,8.70
2018-05-17T07:18:58.717Z,8.43
2018-05-17T07:24:19.705Z,9.40
2018-05-17T07:26:47.211Z,7.93
2018-05-17T07:29:14.714Z,7.37
2018-05-17T07:31:42.219Z,8.97
2018-05-17T07:34:09.722Z,9.27
2018-05-17T07:36:37.997Z,8.03
2018-05-17T07:39:06.260Z,9.33
2018-05-17T07:41:33.767Z,9.57
2018-05-17T07:44:01.274Z,8.33
2018-05-17T07:46:28.777Z,7.87
2018-05-17T07:48:56.291Z,6.97
2018-05-17T07:51:23.796Z,6.53
2018-05-17T07:53:51.303Z,8.07
2018-05-17T07:56:18.807Z,8.70
2018-05-17T07:58:46.310Z,8.20
2018-05-17T08:01:13.813Z,6.87
2018-05-17T08:03:41.317Z,10.30
2018-05-17T08:06:08.820Z,7.60
2018-05-17T08:08:37.094Z,8.20
2018-05-17T08:11:05.374Z,8.03
2018-05-17T08:13:34.450Z,7.43
2018-05-17T08:16:01.946Z,8.07
2018-05-17T08:24:14.669Z,8.57
2018-05-17T08:26:42.175Z,9.20
2018-05-17T08:29:09.675Z,9.73
2018-05-17T08:31:37.182Z,10.33
2018-05-17T08:34:04.691Z,10.07
2018-05-17T08:36:32.275Z,9.37
2018-05-17T08:38:59.715Z,9.63
2018-05-17T08:41:27.219Z,8.57
2018-05-17T08:43:54.731Z,8.20
2018-05-17T08:46:22.230Z,8.43
2018-05-17T08:48:49.741Z,7.23
2018-05-17T08:51:17.248Z,8.30
2018-05-17T08:53:44.761Z,8.13
2018-05-17T08:56:12.270Z,7.53
2018-05-17T08:58:39.774Z,6.67
2018-05-17T09:01:07.268Z,8.67
2018-05-17T09:03:35.541Z,8.40
2018-05-17T09:06:03.805Z,9.03
2018-05-17T09:08:31.315Z,7.50
2018-05-17T09:10:58.821Z,8.23
2018-05-17T09:13:45.593Z,8.10
2018-05-17T09:16:13.814Z,7.33
2018-05-17T11:17:20.104Z,8.40
2018-05-17T11:19:48.493Z,8.57
2018-05-17T11:22:16.792Z,8.23
2018-05-17T12:13:20.938Z,9.07
2018-05-17T12:15:48.440Z,9.03
2018-05-17T12:21:26.330Z,6.83
2018-05-17T12:23:53.829Z,7.30
2018-05-17T12:26:21.327Z,8.03
2018-05-17T12:28:49.594Z,7.93
2018-05-17T12:31:17.858Z,8.43
2018-05-17T12:33:45.359Z,8.13
2018-05-17T12:36:12.862Z,7.50
2018-05-17T12:38:40.362Z,8.27
2018-05-17T12:41:07.879Z,8.33
2018-05-17T12:43:35.377Z,8.57
2018-05-17T12:46:03.650Z,8.03
2018-05-17T12:48:31.917Z,8.00
2018-05-17T12:51:00.195Z,8.37
2018-05-17T12:53:28.457Z,7.93
2018-05-17T12:55:56.737Z,8.57
2018-05-17T12:58:24.237Z,7.70
2018-05-17T13:00:51.747Z,8.33
2018-05-17T13:03:19.246Z,9.10
2018-05-17T13:05:46.751Z,8.23
2018-05-17T13:08:14.258Z,8.57
2018-05-17T13:10:41.774Z,7.97
2018-05-17T13:19:00.630Z,7.57
2018-05-17T13:21:42.882Z,7.77
2018-05-17T14:22:04.019Z,7.90
2018-05-17T14:24:32.289Z,7.40
2018-05-17T14:27:00.558Z,6.93
2018-05-17T14:29:28.058Z,7.37
2018-05-17T14:31:55.566Z,7.93
2018-05-17T14:34:23.075Z,7.00
2018-05-17T14:36:50.574Z,7.23
2018-05-17T14:39:18.073Z,7.80
2018-05-17T14:41:46.346Z,7.70
2018-05-17T14:44:14.623Z,7.87
2018-05-17T14:46:42.890Z,8.53
2018-05-17T14:49:10.389Z,8.17
2018-05-17T14:51:37.893Z,8.43
2018-05-17T14:54:05.394Z,7.80
2018-05-17T14:56:32.906Z,6.97
2018-05-17T14:59:00.421Z,7.27
2018-05-17T15:01:27.921Z,7.33
2018-05-17T15:03:55.421Z,7.93
2018-05-17T15:06:22.942Z,7.77
2018-05-17T15:08:50.493Z,8.00
2018-05-17T15:11:18.008Z,7.03
2018-05-17T15:16:38.534Z,7.90
2018-05-17T15:19:06.039Z,8.20
2018-05-17T15:21:39.577Z,7.93
2018-05-17T15:24:07.078Z,7.37
2018-05-17T15:26:34.583Z,6.90
2018-05-17T15:29:02.858Z,7.20
2018-05-17T15:31:31.137Z,7.27
2018-05-17T15:33:59.472Z,7.97
2018-05-17T15:36:26.943Z,7.83
2018-05-17T15:38:54.452Z,6.03
2018-05-17T15:41:21.957Z,6.07
2018-05-17T15:43:49.461Z,6.83
2018-05-17T15:46:16.975Z,7.57
2018-05-17T15:48:44.477Z,8.17
2018-05-17T15:51:11.987Z,6.93
2018-05-17T15:53:39.553Z,7.20
2018-05-17T15:56:07.022Z,7.30
2018-05-17T15:58:34.527Z,7.77
2018-05-17T16:01:02.029Z,7.27
2018-05-17T16:03:29.534Z,7.40
2018-05-17T16:05:57.037Z,7.17
2018-05-17T16:08:24.561Z,8.03
2018-05-17T16:10:52.061Z,8.20
2018-05-17T16:13:19.565Z,7.00
2018-05-17T16:15:47.837Z,7.03
2018-05-17T16:21:15.558Z,7.60
2018-05-17T16:23:43.061Z,7.07
2018-05-17T16:26:10.581Z,7.90
2018-05-17T16:28:38.097Z,7.40
2018-05-17T16:31:06.366Z,7.67
2018-05-17T16:33:34.643Z,7.27
2018-05-17T16:36:02.908Z,7.83
2018-05-17T16:38:30.418Z,7.37
2018-05-17T16:40:57.923Z,7.90
2018-05-17T16:43:25.434Z,7.73
2018-05-17T16:45:52.951Z,7.90
2018-05-17T16:48:21.315Z,8.53
2018-05-17T16:50:49.514Z,7.03
2018-05-17T16:53:17.886Z,7.53
2018-05-17T16:55:45.315Z,8.30
2018-05-17T16:58:12.820Z,7.57
2018-05-17T17:00:41.177Z,8.67
2018-05-17T17:03:08.614Z,8.97
2018-05-17T17:05:36.126Z,8.23
2018-05-17T17:08:03.638Z,9.70
2018-05-17T17:10:31.149Z,7.57
2018-05-17T17:12:58.658Z,8.57
2018-05-17T17:18:19.286Z,7.90
2018-05-17T17:20:46.798Z,8.17
2018-05-17T17:23:14.310Z,7.80
2018-05-17T17:25:42.583Z,8.17
2018-05-17T17:28:10.091Z,7.90
2018-05-17T17:30:37.637Z,8.83
2018-05-17T17:33:05.150Z,8.07
2018-05-17T17:35:32.654Z,9.00
2018-05-17T17:38:00.162Z,8.23
2018-05-17T17:40:33.338Z,9.10
2018-05-17T17:43:00.878Z,7.73
2018-05-17T17:45:28.390Z,8.63
2018-05-17T17:47:56.667Z,8.17
2018-05-17T17:50:24.173Z,8.27
2018-05-17T17:52:51.682Z,8.87
2018-05-17T17:55:19.228Z,8.97
2018-05-17T17:57:46.709Z,8.30
2018-05-17T18:00:14.984Z,8.03
2018-05-17T18:02:43.265Z,8.40
2018-05-17T18:05:11.627Z,8.33
2018-05-17T18:07:39.105Z,9.27
2018-05-17T18:10:07.388Z,8.83
2018-05-17T18:12:34.904Z,10.70
2018-05-17T18:18:01.375Z,10.43
2018-05-17T18:20:34.865Z,9.27
2018-05-17T18:25:55.117Z,9.37
2018-05-17T18:28:23.381Z,9.00
2018-05-17T18:30:51.650Z,9.03
2018-05-17T18:33:19.163Z,9.93
2018-05-17T18:35:46.667Z,9.77
2018-05-17T18:38:14.172Z,9.77
2018-05-17T18:40:41.679Z,11.10
2018-05-17T18:43:09.193Z,10.07
2018-05-17T18:45:36.718Z,10.50
2018-05-17T18:48:04.997Z,9.97
2018-05-17T18:50:33.266Z,10.67
2018-05-17T18:53:01.535Z,9.50
2018-05-17T18:55:29.824Z,10.90
2018-05-17T18:57:58.093Z,10.17
2018-05-17T19:00:26.365Z,10.53
2018-05-17T19:02:53.869Z,9.30
2018-05-17T19:05:21.371Z,11.43
2018-05-17T19:07:48.870Z,9.83
2018-05-17T19:10:17.177Z,10.27
2018-05-17T19:12:44.690Z,10.73
2018-05-17T19:15:12.962Z,10.90
2018-05-17T19:17:41.197Z,12.13
2018-05-17T19:20:08.736Z,12.50
2018-05-17T19:22:48.771Z,10.93
2018-05-17T19:25:16.312Z,10.10
2018-05-17T19:27:44.587Z,10.33
2018-05-17T19:30:12.882Z,11.03
2018-05-17T19:32:40.385Z,12.40
2018-05-17T19:35:07.886Z,16.13
2018-05-17T19:37:36.157Z,10.10
2018-05-17T19:40:04.430Z,10.53
2018-05-17T19:42:31.938Z,9.90
2018-05-17T19:44:59.457Z,10.63
2018-05-17T19:47:27.729Z,11.93
2018-05-17T19:49:55.227Z,9.37
2018-05-17T19:52:22.817Z,10.20
2018-05-17T19:54:51.031Z,11.53
2018-05-17T19:57:19.298Z,11.90
2018-05-17T19:59:47.574Z,11.43
2018-05-17T20:02:15.088Z,10.57
2018-05-17T20:04:42.598Z,10.97
2018-05-17T20:07:10.867Z,10.43
2018-05-17T20:09:39.193Z,11.07
2018-05-17T20:12:06.693Z,10.47
2018-05-17T20:14:36.402Z,9.67
2018-05-17T20:17:03.966Z,10.43
2018-05-17T20:19:31.626Z,11.30
2018-05-17T20:21:59.150Z,10.80
2018-05-17T20:24:26.679Z,10.03
2018-05-17T20:26:54.967Z,11.23
2018-05-17T20:29:22.573Z,9.30
2018-05-17T20:31:50.798Z,10.60
2018-05-17T20:34:18.314Z,11.37
2018-05-17T20:36:45.908Z,10.93
2018-05-17T20:39:13.359Z,10.07
2018-05-17T20:41:41.655Z,10.23
2018-05-17T20:44:09.161Z,11.33
2018-05-17T20:46:37.493Z,9.80
2018-05-17T20:49:05.078Z,10.73
2018-05-17T20:51:32.589Z,10.57
2018-05-17T20:54:00.899Z,10.70
2018-05-17T20:56:28.442Z,10.53
2018-05-17T20:58:56.716Z,10.10
2018-05-17T21:01:24.993Z,9.63
2018-05-17T21:03:53.435Z,11.13
2018-05-17T21:06:20.982Z,10.03
2018-05-17T21:08:48.546Z,10.47
2018-05-17T21:11:16.046Z,10.70
2018-05-17T21:13:44.361Z,11.13
2018-05-17T21:16:11.897Z,10.47
2018-05-17T21:18:40.489Z,11.30
2018-05-17T21:21:11.062Z,11.50
2018-05-17T21:23:38.573Z,11.33
2018-05-17T21:26:06.786Z,11.43
2018-05-17T21:28:34.335Z,11.70
2018-05-17T21:31:01.963Z,11.57
2018-05-17T21:33:29.475Z,11.17
2018-05-17T21:35:57.005Z,10.43
2018-05-17T21:38:24.526Z,10.77
2018-05-17T21:40:52.806Z,11.00
2018-05-17T21:43:21.079Z,12.00
2018-05-17T21:45:49.354Z,11.10
2018-05-17T21:48:17.634Z,11.37
2018-05-17T21:50:45.909Z,10.70
2018-05-17T21:53:14.189Z,11.63
2018-05-17T21:55:42.469Z,11.43
2018-05-17T21:58:10.746Z,10.63
2018-05-17T22:00:39.022Z,12.53
2018-05-17T22:03:07.311Z,11.13
2018-05-17T22:05:35.586Z,11.00
2018-05-17T22:08:03.853Z,10.97
2018-05-17T22:10:32.135Z,11.17
2018-05-17T22:15:53.699Z,10.70
2018-05-17T22:21:20.377Z,11.37
2018-05-17T22:23:47.891Z,11.47
2018-05-17T22:26:16.162Z,11.30
2018-05-17T22:28:44.436Z,12.13
2018-05-17T22:31:12.716Z,13.70
2018-05-17T22:33:40.988Z,13.50
2018-05-17T22:36:08.494Z,13.43
2018-05-17T22:38:35.998Z,13.53
2018-05-17T22:41:03.509Z,13.43
2018-05-17T22:43:31.018Z,13.93
2018-05-17T22:45:58.525Z,15.40
2018-05-17T22:48:26.034Z,15.27
2018-05-17T22:50:53.568Z,14.80
2018-05-17T22:53:21.067Z,14.33
2018-05-17T22:55:49.337Z,15.80
2018-05-17T22:58:36.318Z,13.77
2018-05-17T23:01:03.864Z,14.40
2018-05-17T23:03:31.369Z,14.90
2018-05-17T23:05:58.878Z,14.60
2018-05-17T23:08:26.381Z,14.97
2018-05-17T23:10:53.896Z,15.57
2018-05-17T23:13:45.058Z,16.90
2018-05-17T23:16:12.602Z,15.07
2018-05-17T23:18:40.115Z,16.37
2018-05-17T23:21:07.627Z,16.30
